sensor_id;sensor_type;location;lat;lon;timestamp;temperature;humidity
24800;DHT22;12897;50.812;4.430;2023-05-31T00:01:13;14.70;99.90
24800;DHT22;12897;50.812;4.430;2023-05-31T00:03:42;14.80;99.90
24800;DHT22;12897;50.812;4.430;2023-05-31T00:06:15;14.70;99.90
24800;DHT22;12897;50.812;4.430;2023-05-31T00:08:45;14.70;99.90
24800;DHT22;12897;50.812;4.430;2023-05-31T00:11:17;14.60;99.90
24800;DHT22;12897;50.812;4.430;2023-05-31T00:13:48;14.60;99.90
24800;DHT22;12897;50.812;4.430;2023-05-31T00:16:21;14.50;99.90
24800;DHT22;12897;50.812;4.430;2023-05-31T00:18:58;14.60;99.90
24800;DHT22;12897;50.812;4.430;2023-05-31T00:21:33;14.60;99.90
24800;DHT22;12897;50.812;4.430;2023-05-31T00:23:58;14.50;99.90
24800;DHT22;12897;50.812;4.430;2023-05-31T00:26:26;14.50;99.90
24800;DHT22;12897;50.812;4.430;2023-05-31T00:28:57;14.40;99.90
24800;DHT22;12897;50.812;4.430;2023-05-31T00:31:35;14.40;99.90
24800;DHT22;12897;50.812;4.430;2023-05-31T00:33:54;14.40;99.90
24800;DHT22;12897;50.812;4.430;2023-05-31T00:36:23;14.30;99.90
24800;DHT22;12897;50.812;4.430;2023-05-31T00:38:53;14.40;99.90
24800;DHT22;12897;50.812;4.430;2023-05-31T00:41:23;14.40;99.90
24800;DHT22;12897;50.812;4.430;2023-05-31T00:43:52;14.30;99.90
24800;DHT22;12897;50.812;4.430;2023-05-31T00:46:28;14.20;99.90
24800;DHT22;12897;50.812;4.430;2023-05-31T00:48:58;14.20;99.90
24800;DHT22;12897;50.812;4.430;2023-05-31T00:51:27;14.10;99.90
24800;DHT22;12897;50.812;4.430;2023-05-31T00:54:03;14.00;99.90
24800;DHT22;12897;50.812;4.430;2023-05-31T00:56:31;14.10;99.90
24800;DHT22;12897;50.812;4.430;2023-05-31T00:59:02;14.00;99.90
24800;DHT22;12897;50.812;4.430;2023-05-31T01:01:34;14.00;99.90
24800;DHT22;12897;50.812;4.430;2023-05-31T01:04:02;14.00;99.90
24800;DHT22;12897;50.812;4.430;2023-05-31T01:06:30;13.90;99.90
24800;DHT22;12897;50.812;4.430;2023-05-31T01:09:09;13.80;99.90
24800;DHT22;12897;50.812;4.430;2023-05-31T01:12:13;13.80;99.90
24800;DHT22;12897;50.812;4.430;2023-05-31T01:20:06;13.70;99.90
24800;DHT22;12897;50.812;4.430;2023-05-31T01:28:06;13.60;99.90
24800;DHT22;12897;50.812;4.430;2023-05-31T01:30:35;13.50;99.90
24800;DHT22;12897;50.812;4.430;2023-05-31T01:33:10;13.40;99.90
24800;DHT22;12897;50.812;4.430;2023-05-31T01:35:38;13.50;99.90
24800;DHT22;12897;50.812;4.430;2023-05-31T01:38:11;13.50;99.90
24800;DHT22;12897;50.812;4.430;2023-05-31T01:40:40;13.40;99.90
24800;DHT22;12897;50.812;4.430;2023-05-31T01:43:16;13.40;99.90
24800;DHT22;12897;50.812;4.430;2023-05-31T01:46:00;13.40;99.90
24800;DHT22;12897;50.812;4.430;2023-05-31T01:48:27;13.30;99.90
24800;DHT22;12897;50.812;4.430;2023-05-31T01:50:59;13.30;99.90
24800;DHT22;12897;50.812;4.430;2023-05-31T01:53:29;13.30;99.90
24800;DHT22;12897;50.812;4.430;2023-05-31T01:56:01;13.40;99.90
24800;DHT22;12897;50.812;4.430;2023-05-31T01:58:31;13.40;99.90
24800;DHT22;12897;50.812;4.430;2023-05-31T02:01:03;13.40;99.90
24800;DHT22;12897;50.812;4.430;2023-05-31T02:03:32;13.40;99.90
24800;DHT22;12897;50.812;4.430;2023-05-31T02:06:05;13.40;99.90
24800;DHT22;12897;50.812;4.430;2023-05-31T02:08:35;13.30;99.90
24800;DHT22;12897;50.812;4.430;2023-05-31T02:11:04;13.40;99.90
24800;DHT22;12897;50.812;4.430;2023-05-31T02:13:39;13.50;99.90
24800;DHT22;12897;50.812;4.430;2023-05-31T02:16:05;13.60;99.90
24800;DHT22;12897;50.812;4.430;2023-05-31T02:18:34;13.50;99.90
24800;DHT22;12897;50.812;4.430;2023-05-31T02:21:10;13.50;99.90
24800;DHT22;12897;50.812;4.430;2023-05-31T02:23:42;13.20;99.90
24800;DHT22;12897;50.812;4.430;2023-05-31T02:26:09;13.20;99.90
24800;DHT22;12897;50.812;4.430;2023-05-31T02:28:40;13.20;99.90
24800;DHT22;12897;50.812;4.430;2023-05-31T02:31:09;13.10;99.90
24800;DHT22;12897;50.812;4.430;2023-05-31T02:33:40;13.00;99.90
24800;DHT22;12897;50.812;4.430;2023-05-31T02:36:10;13.10;99.90
24800;DHT22;12897;50.812;4.430;2023-05-31T02:38:40;13.10;99.90
24800;DHT22;12897;50.812;4.430;2023-05-31T02:41:11;13.10;99.90
24800;DHT22;12897;50.812;4.430;2023-05-31T02:43:39;13.10;99.90
24800;DHT22;12897;50.812;4.430;2023-05-31T02:46:07;13.10;99.90
24800;DHT22;12897;50.812;4.430;2023-05-31T02:48:38;13.10;99.90
24800;DHT22;12897;50.812;4.430;2023-05-31T02:51:05;13.10;99.90
24800;DHT22;12897;50.812;4.430;2023-05-31T02:53:35;13.20;99.90
24800;DHT22;12897;50.812;4.430;2023-05-31T02:56:04;13.10;99.90
24800;DHT22;12897;50.812;4.430;2023-05-31T02:58:33;13.00;99.90
24800;DHT22;12897;50.812;4.430;2023-05-31T03:01:08;13.00;99.90
24800;DHT22;12897;50.812;4.430;2023-05-31T03:03:35;12.90;99.90
24800;DHT22;12897;50.812;4.430;2023-05-31T03:06:08;13.00;99.90
24800;DHT22;12897;50.812;4.430;2023-05-31T03:08:38;13.00;99.90
24800;DHT22;12897;50.812;4.430;2023-05-31T03:11:06;13.00;99.90
24800;DHT22;12897;50.812;4.430;2023-05-31T03:13:39;13.00;99.90
24800;DHT22;12897;50.812;4.430;2023-05-31T03:16:09;12.90;99.90
24800;DHT22;12897;50.812;4.430;2023-05-31T03:18:40;12.80;99.90
24800;DHT22;12897;50.812;4.430;2023-05-31T03:21:09;12.80;99.90
24800;DHT22;12897;50.812;4.430;2023-05-31T03:23:38;12.70;99.90
24800;DHT22;12897;50.812;4.430;2023-05-31T03:26:10;12.70;99.90
24800;DHT22;12897;50.812;4.430;2023-05-31T03:28:38;12.60;99.90
24800;DHT22;12897;50.812;4.430;2023-05-31T03:31:05;12.60;99.90
24800;DHT22;12897;50.812;4.430;2023-05-31T03:33:33;12.60;99.90
24800;DHT22;12897;50.812;4.430;2023-05-31T03:36:08;12.60;99.90
24800;DHT22;12897;50.812;4.430;2023-05-31T03:38:39;12.60;99.90
24800;DHT22;12897;50.812;4.430;2023-05-31T03:41:07;12.80;99.90
24800;DHT22;12897;50.812;4.430;2023-05-31T03:43:36;12.60;99.90
24800;DHT22;12897;50.812;4.430;2023-05-31T03:46:09;12.70;99.90
24800;DHT22;12897;50.812;4.430;2023-05-31T03:48:34;12.70;99.90
24800;DHT22;12897;50.812;4.430;2023-05-31T03:51:03;12.70;99.90
24800;DHT22;12897;50.812;4.430;2023-05-31T03:53:32;12.70;99.90
24800;DHT22;12897;50.812;4.430;2023-05-31T03:56:06;12.70;99.90
24800;DHT22;12897;50.812;4.430;2023-05-31T03:58:49;12.70;99.90
24800;DHT22;12897;50.812;4.430;2023-05-31T04:01:17;12.70;99.90
24800;DHT22;12897;50.812;4.430;2023-05-31T04:03:54;12.60;99.90
24800;DHT22;12897;50.812;4.430;2023-05-31T04:06:29;12.60;99.90
24800;DHT22;12897;50.812;4.430;2023-05-31T04:09:09;12.60;99.90
24800;DHT22;12897;50.812;4.430;2023-05-31T04:11:25;12.60;99.90
24800;DHT22;12897;50.812;4.430;2023-05-31T04:13:55;12.70;99.90
24800;DHT22;12897;50.812;4.430;2023-05-31T04:16:26;12.60;99.90
24800;DHT22;12897;50.812;4.430;2023-05-31T04:18:56;12.60;99.90
24800;DHT22;12897;50.812;4.430;2023-05-31T04:21:23;12.70;99.90
24800;DHT22;12897;50.812;4.430;2023-05-31T04:23:55;12.80;99.90
24800;DHT22;12897;50.812;4.430;2023-05-31T04:26:24;12.60;99.90
24800;DHT22;12897;50.812;4.430;2023-05-31T04:28:57;12.50;99.90
24800;DHT22;12897;50.812;4.430;2023-05-31T04:31:26;12.40;99.90
24800;DHT22;12897;50.812;4.430;2023-05-31T04:33:58;12.50;99.90
24800;DHT22;12897;50.812;4.430;2023-05-31T04:36:33;12.50;99.90
24800;DHT22;12897;50.812;4.430;2023-05-31T04:39:06;12.60;99.90
24800;DHT22;12897;50.812;4.430;2023-05-31T04:41:43;12.70;99.90
24800;DHT22;12897;50.812;4.430;2023-05-31T04:44:10;12.70;99.90
24800;DHT22;12897;50.812;4.430;2023-05-31T04:46:55;12.70;99.90
24800;DHT22;12897;50.812;4.430;2023-05-31T04:49:27;12.80;99.90
24800;DHT22;12897;50.812;4.430;2023-05-31T04:52:02;12.90;99.90
24800;DHT22;12897;50.812;4.430;2023-05-31T04:54:38;12.90;99.90
24800;DHT22;12897;50.812;4.430;2023-05-31T04:57:10;13.00;99.90
24800;DHT22;12897;50.812;4.430;2023-05-31T04:59:43;13.10;99.90
24800;DHT22;12897;50.812;4.430;2023-05-31T05:02:12;13.20;99.90
24800;DHT22;12897;50.812;4.430;2023-05-31T05:04:42;13.30;99.90
24800;DHT22;12897;50.812;4.430;2023-05-31T05:07:16;13.30;99.90
24800;DHT22;12897;50.812;4.430;2023-05-31T05:09:47;13.30;99.90
24800;DHT22;12897;50.812;4.430;2023-05-31T05:12:17;13.40;99.90
24800;DHT22;12897;50.812;4.430;2023-05-31T05:14:58;13.30;99.90
24800;DHT22;12897;50.812;4.430;2023-05-31T05:17:15;13.30;99.90
24800;DHT22;12897;50.812;4.430;2023-05-31T05:19:45;13.60;99.90
24800;DHT22;12897;50.812;4.430;2023-05-31T05:22:20;14.30;99.90
24800;DHT22;12897;50.812;4.430;2023-05-31T05:24:58;15.20;99.90
24800;DHT22;12897;50.812;4.430;2023-05-31T05:27:21;16.50;99.90
24800;DHT22;12897;50.812;4.430;2023-05-31T05:29:51;17.10;99.90
24800;DHT22;12897;50.812;4.430;2023-05-31T05:32:24;17.40;99.90
24800;DHT22;12897;50.812;4.430;2023-05-31T05:34:53;17.80;99.90
24800;DHT22;12897;50.812;4.430;2023-05-31T05:37:27;18.00;99.90
24800;DHT22;12897;50.812;4.430;2023-05-31T05:39:55;18.00;99.90
24800;DHT22;12897;50.812;4.430;2023-05-31T05:42:27;18.10;99.90
24800;DHT22;12897;50.812;4.430;2023-05-31T05:44:57;18.40;99.90
24800;DHT22;12897;50.812;4.430;2023-05-31T05:47:36;17.70;99.90
24800;DHT22;12897;50.812;4.430;2023-05-31T05:50:04;17.90;99.90
24800;DHT22;12897;50.812;4.430;2023-05-31T05:52:34;18.40;99.90
24800;DHT22;12897;50.812;4.430;2023-05-31T05:55:09;18.00;99.90
24800;DHT22;12897;50.812;4.430;2023-05-31T05:57:41;17.80;99.90
24800;DHT22;12897;50.812;4.430;2023-05-31T06:00:10;17.80;99.90
24800;DHT22;12897;50.812;4.430;2023-05-31T06:02:46;18.00;99.90
24800;DHT22;12897;50.812;4.430;2023-05-31T06:05:14;17.80;99.90
24800;DHT22;12897;50.812;4.430;2023-05-31T06:07:41;18.00;99.90
24800;DHT22;12897;50.812;4.430;2023-05-31T06:10:12;18.50;99.90
24800;DHT22;12897;50.812;4.430;2023-05-31T06:12:39;19.00;99.90
24800;DHT22;12897;50.812;4.430;2023-05-31T06:15:16;18.90;99.90
24800;DHT22;12897;50.812;4.430;2023-05-31T06:17:43;18.60;99.90
24800;DHT22;12897;50.812;4.430;2023-05-31T06:20:14;18.50;99.90
24800;DHT22;12897;50.812;4.430;2023-05-31T06:22:46;18.40;99.90
24800;DHT22;12897;50.812;4.430;2023-05-31T06:25:15;18.50;99.90
24800;DHT22;12897;50.812;4.430;2023-05-31T06:27:50;18.60;99.90
24800;DHT22;12897;50.812;4.430;2023-05-31T06:30:18;18.30;99.90
24800;DHT22;12897;50.812;4.430;2023-05-31T06:32:50;17.70;99.90
24800;DHT22;12897;50.812;4.430;2023-05-31T06:35:28;17.80;99.90
24800;DHT22;12897;50.812;4.430;2023-05-31T06:37:52;17.60;99.90
24800;DHT22;12897;50.812;4.430;2023-05-31T06:40:21;17.40;99.90
24800;DHT22;12897;50.812;4.430;2023-05-31T06:42:56;17.40;99.90
24800;DHT22;12897;50.812;4.430;2023-05-31T06:45:26;17.50;99.90
24800;DHT22;12897;50.812;4.430;2023-05-31T06:48:00;18.00;99.90
24800;DHT22;12897;50.812;4.430;2023-05-31T06:50:26;18.00;99.90
24800;DHT22;12897;50.812;4.430;2023-05-31T06:52:59;18.10;99.90
24800;DHT22;12897;50.812;4.430;2023-05-31T06:55:30;18.20;99.90
24800;DHT22;12897;50.812;4.430;2023-05-31T06:58:01;18.50;99.90
24800;DHT22;12897;50.812;4.430;2023-05-31T07:00:29;18.10;99.90
24800;DHT22;12897;50.812;4.430;2023-05-31T07:02:59;17.80;99.90
24800;DHT22;12897;50.812;4.430;2023-05-31T07:05:35;17.50;99.90
24800;DHT22;12897;50.812;4.430;2023-05-31T07:08:05;17.60;99.90
24800;DHT22;12897;50.812;4.430;2023-05-31T07:10:38;17.70;99.90
24800;DHT22;12897;50.812;4.430;2023-05-31T07:13:04;17.80;99.90
24800;DHT22;12897;50.812;4.430;2023-05-31T07:15:33;17.90;99.90
24800;DHT22;12897;50.812;4.430;2023-05-31T07:18:05;18.10;99.90
24800;DHT22;12897;50.812;4.430;2023-05-31T07:20:47;18.20;99.90
24800;DHT22;12897;50.812;4.430;2023-05-31T07:23:10;18.20;99.90
24800;DHT22;12897;50.812;4.430;2023-05-31T07:25:43;17.90;99.90
24800;DHT22;12897;50.812;4.430;2023-05-31T07:28:11;17.80;99.90
24800;DHT22;12897;50.812;4.430;2023-05-31T07:30:43;17.80;99.90
24800;DHT22;12897;50.812;4.430;2023-05-31T07:33:09;17.90;99.90
24800;DHT22;12897;50.812;4.430;2023-05-31T07:35:43;17.80;99.90
24800;DHT22;12897;50.812;4.430;2023-05-31T07:38:11;17.60;99.90
24800;DHT22;12897;50.812;4.430;2023-05-31T07:40:45;17.40;99.90
24800;DHT22;12897;50.812;4.430;2023-05-31T07:43:15;17.50;99.90
24800;DHT22;12897;50.812;4.430;2023-05-31T07:45:45;17.40;99.90
24800;DHT22;12897;50.812;4.430;2023-05-31T07:48:18;17.70;99.90
24800;DHT22;12897;50.812;4.430;2023-05-31T07:50:49;17.70;99.90
24800;DHT22;12897;50.812;4.430;2023-05-31T07:53:18;17.70;99.90
24800;DHT22;12897;50.812;4.430;2023-05-31T07:55:49;17.90;99.90
24800;DHT22;12897;50.812;4.430;2023-05-31T07:58:17;18.20;99.90
24800;DHT22;12897;50.812;4.430;2023-05-31T08:00:46;18.30;99.90
24800;DHT22;12897;50.812;4.430;2023-05-31T08:03:14;18.30;99.90
24800;DHT22;12897;50.812;4.430;2023-05-31T08:05:41;18.30;99.90
24800;DHT22;12897;50.812;4.430;2023-05-31T08:08:15;18.20;99.90
24800;DHT22;12897;50.812;4.430;2023-05-31T08:10:48;18.30;99.90
24800;DHT22;12897;50.812;4.430;2023-05-31T08:13:17;18.40;99.90
24800;DHT22;12897;50.812;4.430;2023-05-31T08:15:45;18.40;99.90
24800;DHT22;12897;50.812;4.430;2023-05-31T08:18:15;18.50;99.90
24800;DHT22;12897;50.812;4.430;2023-05-31T08:20:48;18.50;99.90
24800;DHT22;12897;50.812;4.430;2023-05-31T08:23:18;18.70;99.90
24800;DHT22;12897;50.812;4.430;2023-05-31T08:25:58;18.80;99.90
24800;DHT22;12897;50.812;4.430;2023-05-31T08:28:26;18.90;99.90
24800;DHT22;12897;50.812;4.430;2023-05-31T08:30:54;19.10;99.90
24800;DHT22;12897;50.812;4.430;2023-05-31T08:33:30;19.20;99.90
24800;DHT22;12897;50.812;4.430;2023-05-31T08:35:55;19.20;99.90
24800;DHT22;12897;50.812;4.430;2023-05-31T08:38:30;19.20;99.90
24800;DHT22;12897;50.812;4.430;2023-05-31T08:41:05;18.80;99.90
24800;DHT22;12897;50.812;4.430;2023-05-31T08:43:31;18.90;99.90
24800;DHT22;12897;50.812;4.430;2023-05-31T08:46:03;19.00;99.90
24800;DHT22;12897;50.812;4.430;2023-05-31T08:48:54;19.10;99.90
24800;DHT22;12897;50.812;4.430;2023-05-31T08:51:28;19.20;99.90
24800;DHT22;12897;50.812;4.430;2023-05-31T08:54:00;19.30;99.90
24800;DHT22;12897;50.812;4.430;2023-05-31T08:56:35;19.00;99.90
24800;DHT22;12897;50.812;4.430;2023-05-31T08:59:02;19.20;99.90
24800;DHT22;12897;50.812;4.430;2023-05-31T09:01:31;19.20;99.90
24800;DHT22;12897;50.812;4.430;2023-05-31T09:04:07;19.30;99.90
24800;DHT22;12897;50.812;4.430;2023-05-31T09:06:46;19.20;99.90
24800;DHT22;12897;50.812;4.430;2023-05-31T09:09:14;19.50;99.90
24800;DHT22;12897;50.812;4.430;2023-05-31T09:11:42;19.40;99.90
24800;DHT22;12897;50.812;4.430;2023-05-31T09:14:09;19.20;99.90
24800;DHT22;12897;50.812;4.430;2023-05-31T09:16:37;19.20;99.90
24800;DHT22;12897;50.812;4.430;2023-05-31T09:19:06;19.40;99.90
24800;DHT22;12897;50.812;4.430;2023-05-31T09:21:41;19.50;99.90
24800;DHT22;12897;50.812;4.430;2023-05-31T09:24:09;19.70;99.90
24800;DHT22;12897;50.812;4.430;2023-05-31T09:26:51;19.90;99.90
24800;DHT22;12897;50.812;4.430;2023-05-31T09:29:20;19.90;99.90
24800;DHT22;12897;50.812;4.430;2023-05-31T09:31:51;19.80;99.90
24800;DHT22;12897;50.812;4.430;2023-05-31T09:34:28;19.70;99.90
24800;DHT22;12897;50.812;4.430;2023-05-31T09:37:00;19.90;99.90
24800;DHT22;12897;50.812;4.430;2023-05-31T09:39:30;19.90;99.90
24800;DHT22;12897;50.812;4.430;2023-05-31T09:41:58;20.00;99.90
24800;DHT22;12897;50.812;4.430;2023-05-31T09:44:27;20.00;99.90
24800;DHT22;12897;50.812;4.430;2023-05-31T09:46:54;20.00;99.90
24800;DHT22;12897;50.812;4.430;2023-05-31T09:49:24;19.90;99.90
24800;DHT22;12897;50.812;4.430;2023-05-31T09:51:52;20.00;99.90
24800;DHT22;12897;50.812;4.430;2023-05-31T09:54:20;20.10;99.90
24800;DHT22;12897;50.812;4.430;2023-05-31T09:56:50;20.40;99.90
24800;DHT22;12897;50.812;4.430;2023-05-31T09:59:18;20.60;99.90
24800;DHT22;12897;50.812;4.430;2023-05-31T10:01:47;20.70;99.90
24800;DHT22;12897;50.812;4.430;2023-05-31T10:04:15;20.80;99.90
24800;DHT22;12897;50.812;4.430;2023-05-31T10:06:46;20.80;99.90
24800;DHT22;12897;50.812;4.430;2023-05-31T10:09:16;20.80;99.90
24800;DHT22;12897;50.812;4.430;2023-05-31T10:11:46;20.70;99.90
24800;DHT22;12897;50.812;4.430;2023-05-31T10:14:24;20.60;99.90
24800;DHT22;12897;50.812;4.430;2023-05-31T10:16:53;20.70;99.90
24800;DHT22;12897;50.812;4.430;2023-05-31T10:19:34;20.70;99.90
24800;DHT22;12897;50.812;4.430;2023-05-31T10:22:01;20.80;99.90
24800;DHT22;12897;50.812;4.430;2023-05-31T10:24:32;20.70;99.90
24800;DHT22;12897;50.812;4.430;2023-05-31T10:29:48;21.10;99.90
24800;DHT22;12897;50.812;4.430;2023-05-31T10:32:24;21.10;99.90
24800;DHT22;12897;50.812;4.430;2023-05-31T10:34:52;21.30;99.90
24800;DHT22;12897;50.812;4.430;2023-05-31T10:37:21;21.50;99.90
24800;DHT22;12897;50.812;4.430;2023-05-31T10:45:28;21.10;99.90
24800;DHT22;12897;50.812;4.430;2023-05-31T10:51:08;21.30;99.90
24800;DHT22;12897;50.812;4.430;2023-05-31T10:53:30;21.50;99.90
24800;DHT22;12897;50.812;4.430;2023-05-31T10:56:09;21.50;99.90
24800;DHT22;12897;50.812;4.430;2023-05-31T10:58:42;21.60;99.90
24800;DHT22;12897;50.812;4.430;2023-05-31T11:01:12;21.70;99.90
24800;DHT22;12897;50.812;4.430;2023-05-31T11:03:51;21.80;99.90
24800;DHT22;12897;50.812;4.430;2023-05-31T11:06:31;21.80;99.90
24800;DHT22;12897;50.812;4.430;2023-05-31T11:09:12;22.00;99.90
24800;DHT22;12897;50.812;4.430;2023-05-31T11:11:43;21.90;99.90
24800;DHT22;12897;50.812;4.430;2023-05-31T11:14:31;22.10;99.90
24800;DHT22;12897;50.812;4.430;2023-05-31T11:19:36;22.10;99.90
24800;DHT22;12897;50.812;4.430;2023-05-31T11:22:09;22.00;99.90
24800;DHT22;12897;50.812;4.430;2023-05-31T11:24:39;22.10;99.90
24800;DHT22;12897;50.812;4.430;2023-05-31T11:27:21;22.10;99.90
24800;DHT22;12897;50.812;4.430;2023-05-31T11:29:55;22.30;99.90
24800;DHT22;12897;50.812;4.430;2023-05-31T11:35:15;22.60;99.90
24800;DHT22;12897;50.812;4.430;2023-05-31T11:37:43;22.80;99.90
24800;DHT22;12897;50.812;4.430;2023-05-31T11:40:16;22.70;99.90
24800;DHT22;12897;50.812;4.430;2023-05-31T11:43:01;23.00;99.90
24800;DHT22;12897;50.812;4.430;2023-05-31T11:45:22;23.10;98.70
24800;DHT22;12897;50.812;4.430;2023-05-31T11:50:50;23.00;97.20
24800;DHT22;12897;50.812;4.430;2023-05-31T11:53:19;23.00;96.30
24800;DHT22;12897;50.812;4.430;2023-05-31T11:55:48;22.80;96.10
24800;DHT22;12897;50.812;4.430;2023-05-31T11:58:24;23.00;96.70
24800;DHT22;12897;50.812;4.430;2023-05-31T12:00:56;22.80;96.70
24800;DHT22;12897;50.812;4.430;2023-05-31T12:03:21;22.80;97.70
24800;DHT22;12897;50.812;4.430;2023-05-31T12:05:56;23.10;97.40
24800;DHT22;12897;50.812;4.430;2023-05-31T12:08:29;23.20;95.10
24800;DHT22;12897;50.812;4.430;2023-05-31T12:11:03;23.20;95.30
24800;DHT22;12897;50.812;4.430;2023-05-31T12:13:32;23.30;95.30
24800;DHT22;12897;50.812;4.430;2023-05-31T12:16:08;23.40;94.50
24800;DHT22;12897;50.812;4.430;2023-05-31T12:18:32;23.40;94.00
24800;DHT22;12897;50.812;4.430;2023-05-31T12:21:11;23.10;93.30
24800;DHT22;12897;50.812;4.430;2023-05-31T12:23:59;23.20;93.10
24800;DHT22;12897;50.812;4.430;2023-05-31T12:26:25;23.30;92.80
24800;DHT22;12897;50.812;4.430;2023-05-31T12:28:58;23.40;93.00
24800;DHT22;12897;50.812;4.430;2023-05-31T12:31:26;23.40;92.40
24800;DHT22;12897;50.812;4.430;2023-05-31T12:34:12;23.40;93.40
24800;DHT22;12897;50.812;4.430;2023-05-31T12:36:47;23.70;92.40
24800;DHT22;12897;50.812;4.430;2023-05-31T12:39:23;23.80;92.30
24800;DHT22;12897;50.812;4.430;2023-05-31T12:41:56;23.80;92.00
24800;DHT22;12897;50.812;4.430;2023-05-31T12:44:26;23.80;92.90
24800;DHT22;12897;50.812;4.430;2023-05-31T12:47:02;23.50;92.10
24800;DHT22;12897;50.812;4.430;2023-05-31T12:49:37;23.30;92.30
24800;DHT22;12897;50.812;4.430;2023-05-31T12:52:26;23.40;92.50
24800;DHT22;12897;50.812;4.430;2023-05-31T12:54:55;23.60;92.10
24800;DHT22;12897;50.812;4.430;2023-05-31T12:57:22;23.70;92.10
24800;DHT22;12897;50.812;4.430;2023-05-31T12:59:59;23.80;90.60
24800;DHT22;12897;50.812;4.430;2023-05-31T13:02:29;23.90;91.20
24800;DHT22;12897;50.812;4.430;2023-05-31T13:04:57;23.80;91.30
24800;DHT22;12897;50.812;4.430;2023-05-31T13:07:25;23.70;91.90
24800;DHT22;12897;50.812;4.430;2023-05-31T13:09:54;23.60;91.80
24800;DHT22;12897;50.812;4.430;2023-05-31T13:12:23;23.80;91.90
24800;DHT22;12897;50.812;4.430;2023-05-31T13:14:58;23.90;91.10
24800;DHT22;12897;50.812;4.430;2023-05-31T13:17:27;24.10;90.50
24800;DHT22;12897;50.812;4.430;2023-05-31T13:20:06;24.10;88.70
24800;DHT22;12897;50.812;4.430;2023-05-31T13:22:31;24.00;89.50
24800;DHT22;12897;50.812;4.430;2023-05-31T13:24:56;23.80;91.30
24800;DHT22;12897;50.812;4.430;2023-05-31T13:27:28;23.70;91.60
24800;DHT22;12897;50.812;4.430;2023-05-31T13:29:53;23.90;90.70
24800;DHT22;12897;50.812;4.430;2023-05-31T13:32:27;24.10;90.60
24800;DHT22;12897;50.812;4.430;2023-05-31T13:34:58;23.90;91.40
24800;DHT22;12897;50.812;4.430;2023-05-31T13:37:27;23.90;91.00
24800;DHT22;12897;50.812;4.430;2023-05-31T13:39:55;23.90;91.50
24800;DHT22;12897;50.812;4.430;2023-05-31T13:42:24;24.00;91.40
24800;DHT22;12897;50.812;4.430;2023-05-31T13:44:54;24.30;91.20
24800;DHT22;12897;50.812;4.430;2023-05-31T13:47:21;24.30;91.00
24800;DHT22;12897;50.812;4.430;2023-05-31T13:49:58;24.40;90.30
24800;DHT22;12897;50.812;4.430;2023-05-31T13:52:40;24.30;90.40
24800;DHT22;12897;50.812;4.430;2023-05-31T13:55:16;24.30;90.30
24800;DHT22;12897;50.812;4.430;2023-05-31T13:57:57;24.30;90.50
24800;DHT22;12897;50.812;4.430;2023-05-31T14:00:33;24.50;90.30
24800;DHT22;12897;50.812;4.430;2023-05-31T14:03:04;24.60;89.30
24800;DHT22;12897;50.812;4.430;2023-05-31T14:05:46;24.40;89.00
24800;DHT22;12897;50.812;4.430;2023-05-31T14:08:22;24.30;89.10
24800;DHT22;12897;50.812;4.430;2023-05-31T14:10:49;24.30;89.60
24800;DHT22;12897;50.812;4.430;2023-05-31T14:13:17;24.20;89.10
24800;DHT22;12897;50.812;4.430;2023-05-31T14:15:51;24.20;89.90
24800;DHT22;12897;50.812;4.430;2023-05-31T14:18:15;24.10;90.00
24800;DHT22;12897;50.812;4.430;2023-05-31T14:20:45;24.30;89.50
24800;DHT22;12897;50.812;4.430;2023-05-31T14:23:15;24.50;89.00
24800;DHT22;12897;50.812;4.430;2023-05-31T14:25:43;24.60;89.30
24800;DHT22;12897;50.812;4.430;2023-05-31T14:28:11;24.50;87.60
24800;DHT22;12897;50.812;4.430;2023-05-31T14:30:41;24.40;89.70
24800;DHT22;12897;50.812;4.430;2023-05-31T14:33:10;24.60;86.50
24800;DHT22;12897;50.812;4.430;2023-05-31T14:35:39;24.70;86.40
24800;DHT22;12897;50.812;4.430;2023-05-31T14:38:08;24.70;86.50
24800;DHT22;12897;50.812;4.430;2023-05-31T14:40:38;24.50;87.20
24800;DHT22;12897;50.812;4.430;2023-05-31T14:43:10;24.50;88.30
24800;DHT22;12897;50.812;4.430;2023-05-31T14:45:36;24.50;87.20
24800;DHT22;12897;50.812;4.430;2023-05-31T14:48:06;24.70;88.40
24800;DHT22;12897;50.812;4.430;2023-05-31T14:50:34;24.90;85.60
24800;DHT22;12897;50.812;4.430;2023-05-31T14:53:01;24.80;85.00
24800;DHT22;12897;50.812;4.430;2023-05-31T14:55:34;24.70;85.60
24800;DHT22;12897;50.812;4.430;2023-05-31T14:58:01;24.70;86.10
24800;DHT22;12897;50.812;4.430;2023-05-31T15:00:29;24.50;87.90
24800;DHT22;12897;50.812;4.430;2023-05-31T15:02:56;24.70;88.20
24800;DHT22;12897;50.812;4.430;2023-05-31T15:05:24;24.90;86.90
24800;DHT22;12897;50.812;4.430;2023-05-31T15:07:53;24.90;86.40
24800;DHT22;12897;50.812;4.430;2023-05-31T15:10:23;24.80;87.20
24800;DHT22;12897;50.812;4.430;2023-05-31T15:12:54;24.90;86.00
24800;DHT22;12897;50.812;4.430;2023-05-31T15:15:23;24.90;86.60
24800;DHT22;12897;50.812;4.430;2023-05-31T15:17:51;24.90;87.00
24800;DHT22;12897;50.812;4.430;2023-05-31T15:20:19;24.80;87.20
24800;DHT22;12897;50.812;4.430;2023-05-31T15:22:49;24.60;86.60
24800;DHT22;12897;50.812;4.430;2023-05-31T15:25:20;24.60;86.50
24800;DHT22;12897;50.812;4.430;2023-05-31T15:27:49;24.70;87.30
24800;DHT22;12897;50.812;4.430;2023-05-31T15:30:17;24.80;86.60
24800;DHT22;12897;50.812;4.430;2023-05-31T15:32:46;24.90;87.00
24800;DHT22;12897;50.812;4.430;2023-05-31T15:35:17;24.80;85.80
24800;DHT22;12897;50.812;4.430;2023-05-31T15:37:47;24.90;85.70
24800;DHT22;12897;50.812;4.430;2023-05-31T15:40:17;24.80;85.80
24800;DHT22;12897;50.812;4.430;2023-05-31T15:42:45;24.80;87.00
24800;DHT22;12897;50.812;4.430;2023-05-31T15:45:17;24.80;87.20
24800;DHT22;12897;50.812;4.430;2023-05-31T15:47:41;24.70;87.10
24800;DHT22;12897;50.812;4.430;2023-05-31T15:50:09;24.70;87.40
24800;DHT22;12897;50.812;4.430;2023-05-31T15:52:37;24.70;87.20
24800;DHT22;12897;50.812;4.430;2023-05-31T15:55:05;24.80;87.50
24800;DHT22;12897;50.812;4.430;2023-05-31T15:57:35;24.90;86.30
24800;DHT22;12897;50.812;4.430;2023-05-31T16:00:04;24.90;85.10
24800;DHT22;12897;50.812;4.430;2023-05-31T16:02:36;24.90;86.10
24800;DHT22;12897;50.812;4.430;2023-05-31T16:05:10;25.00;85.90
24800;DHT22;12897;50.812;4.430;2023-05-31T16:07:40;25.20;84.10
24800;DHT22;12897;50.812;4.430;2023-05-31T16:10:09;25.10;84.40
24800;DHT22;12897;50.812;4.430;2023-05-31T16:12:44;24.90;85.40
24800;DHT22;12897;50.812;4.430;2023-05-31T16:15:08;24.90;87.00
24800;DHT22;12897;50.812;4.430;2023-05-31T16:17:40;25.20;87.60
24800;DHT22;12897;50.812;4.430;2023-05-31T16:20:08;25.20;85.40
24800;DHT22;12897;50.812;4.430;2023-05-31T16:22:37;25.30;86.10
24800;DHT22;12897;50.812;4.430;2023-05-31T16:25:11;25.20;86.30